createdAt,value
2023-02-23T00:00:44.715Z,100708.06
2023-02-23T00:03:12.801Z,100705.50
2023-02-23T00:05:40.626Z,100701.66
2023-02-23T00:08:08.293Z,100699.19
2023-02-23T00:10:36.134Z,100701.75
2023-02-23T00:13:11.145Z,100702.56
2023-02-23T00:15:39.083Z,100696.63
2023-02-23T00:29:26.183Z,100712.59
2023-02-23T00:31:56.436Z,100702.31
2023-02-23T00:34:24.321Z,100711.31
2023-02-23T00:36:54.496Z,100714.56
2023-02-23T00:39:27.014Z,100708.88
2023-02-23T00:41:55.384Z,100709.22
2023-02-23T00:44:25.753Z,100708.41
2023-02-23T00:49:36.106Z,100702.94
2023-02-23T00:52:31.255Z,100698.97
2023-02-23T01:06:07.192Z,100706.66
2023-02-23T01:09:16.172Z,100708.75
2023-02-23T01:11:46.688Z,100703.97
2023-02-23T01:14:16.500Z,100707.03
2023-02-23T01:19:22.555Z,100711.19
2023-02-23T01:21:50.420Z,100707.34
2023-02-23T01:24:19.725Z,100708.28
2023-02-23T01:26:48.640Z,100702.78
2023-02-23T01:29:18.310Z,100694.00
2023-02-23T01:31:48.711Z,100700.81
2023-02-23T01:34:17.283Z,100695.22
2023-02-23T01:36:45.353Z,100699.41
2023-02-23T01:39:55.954Z,100696.84
2023-02-23T01:45:56.354Z,100689.41
2023-02-23T02:37:24.970Z,100668.19
2023-02-23T02:40:15.686Z,100668.31
2023-02-23T02:47:10.850Z,100660.50
2023-02-23T02:50:15.340Z,100667.25
2023-02-23T02:52:49.963Z,100666.91
2023-02-23T02:55:34.502Z,100660.00
2023-02-23T02:58:06.389Z,100667.59
2023-02-23T03:14:36.061Z,100670.50
2023-02-23T03:17:25.668Z,100666.78
2023-02-23T03:20:15.674Z,100664.34
2023-02-23T03:23:06.701Z,100656.84
2023-02-23T03:26:00.037Z,100671.78
2023-02-23T03:28:50.856Z,100663.38
2023-02-23T03:31:42.309Z,100667.09
2023-02-23T03:34:29.796Z,100666.06
2023-02-23T03:37:20.708Z,100663.50
2023-02-23T03:40:10.808Z,100664.91
2023-02-23T03:42:56.992Z,100669.38
2023-02-23T03:45:54.013Z,100675.59
2023-02-23T03:48:50.663Z,100684.31
2023-02-23T03:51:37.524Z,100680.72
2023-02-23T03:57:29.269Z,100693.44
2023-02-23T04:00:17.808Z,100699.72
2023-02-23T04:03:05.995Z,100690.72
2023-02-23T04:05:54.542Z,100689.22
2023-02-23T04:08:40.994Z,100680.97
2023-02-23T04:12:03.862Z,100684.19
2023-02-23T04:15:12.177Z,100684.16
2023-02-23T04:17:40.432Z,100677.44
2023-02-23T04:38:43.959Z,100669.91
2023-02-23T04:51:24.271Z,100678.13
2023-02-23T04:53:51.870Z,100673.97
2023-02-23T04:56:19.482Z,100676.78
2023-02-23T04:58:47.060Z,100674.44
2023-02-23T05:01:14.756Z,100681.44
2023-02-23T05:03:42.371Z,100684.91
2023-02-23T05:06:09.959Z,100680.38
2023-02-23T05:08:38.944Z,100676.78
2023-02-23T05:11:07.346Z,100681.41
2023-02-23T05:22:38.004Z,100664.44
2023-02-23T05:25:21.872Z,100670.25
2023-02-23T05:27:49.624Z,100677.13
2023-02-23T05:30:17.588Z,100677.50
2023-02-23T05:32:45.253Z,100672.34
2023-02-23T05:35:13.104Z,100672.03
2023-02-23T05:43:01.864Z,100675.03
2023-02-23T05:45:29.519Z,100670.75
2023-02-23T05:47:57.228Z,100667.00
2023-02-23T05:50:24.914Z,100659.09
2023-02-23T05:52:52.927Z,100654.91
2023-02-23T05:55:20.627Z,100658.63
2023-02-23T05:57:48.334Z,100659.22
2023-02-23T06:00:19.562Z,100658.50
2023-02-23T06:02:47.397Z,100659.31
2023-02-23T06:05:15.848Z,100663.50
2023-02-23T06:07:45.625Z,100662.47
2023-02-23T06:10:14.459Z,100672.16
2023-02-23T06:12:42.507Z,100670.88
2023-02-23T06:15:17.106Z,100679.59
2023-02-23T06:17:46.156Z,100690.66
2023-02-23T06:20:15.088Z,100682.06
2023-02-23T06:22:43.562Z,100692.06
2023-02-23T06:25:13.526Z,100694.38
2023-02-23T06:27:46.168Z,100695.53
2023-02-23T06:30:14.860Z,100703.13
2023-02-23T06:32:42.666Z,100705.22
2023-02-23T06:35:12.058Z,100713.25
2023-02-23T06:37:39.749Z,100718.75
2023-02-23T06:40:08.767Z,100723.28
2023-02-23T06:42:36.764Z,100729.47
2023-02-23T06:45:04.489Z,100725.75
2023-02-23T06:47:32.058Z,100715.50
2023-02-23T06:49:59.889Z,100726.22
2023-02-23T06:52:28.851Z,100718.19
2023-02-23T06:54:56.522Z,100717.34
2023-02-23T06:57:24.162Z,100711.19
2023-02-23T06:59:51.877Z,100719.00
2023-02-23T07:02:19.368Z,100721.22
2023-02-23T07:04:47.145Z,100721.31
2023-02-23T07:07:14.902Z,100711.78
2023-02-23T07:09:48.940Z,100724.38
2023-02-23T07:12:16.367Z,100726.44
2023-02-23T07:14:44.051Z,100725.66
2023-02-23T07:17:12.679Z,100738.94
2023-02-23T07:19:40.705Z,100730.31
2023-02-23T07:22:08.231Z,100732.53
2023-02-23T07:24:36.087Z,100728.69
2023-02-23T07:27:05.425Z,100740.59
2023-02-23T07:29:33.037Z,100740.22
2023-02-23T07:32:01.238Z,100743.00
2023-02-23T07:34:28.852Z,100759.47
2023-02-23T07:36:56.336Z,100756.41
2023-02-23T07:39:23.825Z,100759.09
2023-02-23T07:41:51.387Z,100759.94
2023-02-23T07:44:20.283Z,100769.59
2023-02-23T07:46:47.741Z,100764.47
2023-02-23T07:49:15.298Z,100763.56
2023-02-23T07:51:42.702Z,100769.13
2023-02-23T07:54:10.297Z,100772.50
2023-02-23T07:56:37.803Z,100767.97
2023-02-23T07:59:05.314Z,100770.19
2023-02-23T08:01:34.170Z,100768.09
2023-02-23T08:04:01.831Z,100775.31
2023-02-23T08:06:29.477Z,100776.59
2023-02-23T08:08:57.105Z,100773.91
2023-02-23T08:11:24.530Z,100774.75
2023-02-23T08:13:52.071Z,100782.09
2023-02-23T08:16:19.617Z,100774.03
2023-02-23T08:18:48.655Z,100770.56
2023-02-23T08:21:16.164Z,100769.31
2023-02-23T08:23:43.599Z,100776.97
2023-02-23T08:26:11.598Z,100766.84
2023-02-23T08:28:41.744Z,100772.56
2023-02-23T08:31:10.641Z,100780.59
2023-02-23T08:33:38.872Z,100771.22
2023-02-23T08:36:08.833Z,100778.47
2023-02-23T08:38:37.478Z,100783.97
2023-02-23T08:41:06.475Z,100786.88
2023-02-23T08:43:34.551Z,100784.75
2023-02-23T08:46:02.355Z,100790.47
2023-02-23T08:48:30.287Z,100797.03
2023-02-23T08:50:58.868Z,100792.19
2023-02-23T08:53:29.888Z,100797.75
2023-02-23T08:55:59.357Z,100795.97
2023-02-23T08:58:30.741Z,100803.22
2023-02-23T09:00:58.746Z,100793.28
2023-02-23T09:03:28.882Z,100793.56
2023-02-23T09:05:58.092Z,100795.75
2023-02-23T09:08:27.362Z,100800.91
2023-02-23T09:10:55.068Z,100801.84
2023-02-23T09:13:22.953Z,100796.69
2023-02-23T09:15:50.903Z,100803.94
2023-02-23T09:18:18.452Z,100800.09
2023-02-23T09:20:46.899Z,100804.06
2023-02-23T09:23:14.883Z,100807.66
2023-02-23T09:25:44.446Z,100808.81
2023-02-23T09:28:13.099Z,100808.47
2023-02-23T09:30:43.965Z,100812.91
2023-02-23T09:33:12.579Z,100803.47
2023-02-23T09:35:41.608Z,100802.66
2023-02-23T09:38:10.372Z,100799.50
2023-02-23T09:40:53.057Z,100818.16
2023-02-23T09:43:24.539Z,100799.97
2023-02-23T09:45:55.889Z,100810.13
2023-02-23T09:48:26.885Z,100810.03
2023-02-23T09:50:56.730Z,100805.47
2023-02-23T09:53:34.273Z,100811.66
2023-02-23T09:56:08.516Z,100809.44
2023-02-23T09:58:37.088Z,100812.81
2023-02-23T10:01:36.648Z,100813.84
2023-02-23T10:04:07.976Z,100817.00
2023-02-23T10:06:39.512Z,100812.69
2023-02-23T10:09:17.420Z,100822.84
2023-02-23T10:11:52.618Z,100820.16
2023-02-23T10:14:46.072Z,100818.53
2023-02-23T10:17:25.906Z,100820.53
2023-02-23T10:20:01.741Z,100829.50
2023-02-23T10:22:33.568Z,100827.03
2023-02-23T10:25:05.334Z,100830.78
2023-02-23T10:27:48.346Z,100831.00
2023-02-23T10:30:22.167Z,100833.72
2023-02-23T10:32:55.501Z,100833.47
2023-02-23T10:35:25.382Z,100834.38
2023-02-23T10:37:54.621Z,100833.34
2023-02-23T10:40:25.431Z,100836.25
2023-02-23T10:42:56.545Z,100830.78
2023-02-23T10:45:27.495Z,100834.03
2023-02-23T10:47:59.443Z,100832.53
2023-02-23T10:50:30.614Z,100835.66
2023-02-23T10:53:01.980Z,100832.41
2023-02-23T10:55:31.713Z,100839.88
2023-02-23T10:58:06.758Z,100831.03
2023-02-23T11:00:41.396Z,100839.75
2023-02-23T11:03:28.794Z,100842.19
2023-02-23T11:05:58.730Z,100840.59
2023-02-23T11:08:32.947Z,100844.31
2023-02-23T11:11:08.547Z,100838.94
2023-02-23T11:13:41.391Z,100838.44
2023-02-23T11:16:13.454Z,100840.34
2023-02-23T11:18:45.514Z,100832.31
2023-02-23T11:21:15.831Z,100836.50
2023-02-23T11:23:44.733Z,100833.19
2023-02-23T11:26:28.969Z,100839.53
2023-02-23T11:29:04.177Z,100833.09
2023-02-23T11:31:36.331Z,100838.78
2023-02-23T11:34:05.695Z,100835.78
2023-02-23T11:36:36.008Z,100836.50
2023-02-23T11:39:08.942Z,100831.00
2023-02-23T11:41:38.716Z,100831.34
2023-02-23T11:44:08.390Z,100823.84
2023-02-23T11:46:40.143Z,100824.91
2023-02-23T11:49:09.854Z,100824.09
2023-02-23T11:51:41.482Z,100821.06
2023-02-23T11:54:22.665Z,100807.88
2023-02-23T11:56:55.386Z,100817.00
2023-02-23T11:59:31.387Z,100820.47
2023-02-23T12:02:11.603Z,100811.97
2023-02-23T12:04:43.225Z,100826.53
2023-02-23T12:07:42.046Z,100812.28
2023-02-23T12:10:21.367Z,100815.25
2023-02-23T12:13:08.593Z,100812.81
2023-02-23T12:15:44.013Z,100808.50
2023-02-23T12:18:34.824Z,100802.72
2023-02-23T12:21:10.365Z,100793.34
2023-02-23T12:23:42.403Z,100793.22
2023-02-23T12:26:13.978Z,100797.66
2023-02-23T12:28:46.649Z,100799.75
2023-02-23T12:31:24.843Z,100796.03
2023-02-23T12:33:57.093Z,100794.38
2023-02-23T12:36:32.133Z,100802.78
2023-02-23T12:39:04.966Z,100799.72
2023-02-23T12:41:39.056Z,100803.00
2023-02-23T12:44:15.502Z,100802.19
2023-02-23T12:46:49.006Z,100799.91
2023-02-23T12:49:21.493Z,100808.38
2023-02-23T12:51:52.849Z,100792.56
2023-02-23T12:54:21.572Z,100797.03
2023-02-23T12:56:57.593Z,100798.88
2023-02-23T12:59:44.008Z,100805.28
2023-02-23T13:02:16.883Z,100797.13
2023-02-23T13:04:58.144Z,100798.16
2023-02-23T13:07:35.286Z,100800.44
2023-02-23T13:10:10.602Z,100793.50
2023-02-23T13:12:49.586Z,100799.31
2023-02-23T13:15:27.243Z,100802.41
2023-02-23T13:18:03.790Z,100810.00
2023-02-23T13:20:35.273Z,100797.88
2023-02-23T13:23:12.872Z,100808.47
2023-02-23T13:25:48.384Z,100802.47
2023-02-23T13:28:20.185Z,100793.34
2023-02-23T13:30:48.769Z,100791.16
2023-02-23T13:33:38.320Z,100796.34
2023-02-23T13:36:14.636Z,100798.63
2023-02-23T13:38:48.681Z,100802.31
2023-02-23T13:41:30.720Z,100798.03
2023-02-23T13:44:03.290Z,100798.97
2023-02-23T13:46:38.465Z,100796.63
2023-02-23T13:49:22.275Z,100793.38
2023-02-23T13:51:54.567Z,100791.28
2023-02-23T13:54:29.734Z,100790.16
2023-02-23T13:56:59.632Z,100791.09
2023-02-23T13:59:30.411Z,100796.91
2023-02-23T14:02:01.320Z,100793.56
2023-02-23T14:04:36.533Z,100785.53
2023-02-23T14:07:07.398Z,100776.75
2023-02-23T14:09:38.219Z,100780.84
2023-02-23T14:12:18.775Z,100775.13
2023-02-23T14:14:48.725Z,100773.63
2023-02-23T14:17:56.890Z,100779.28
2023-02-23T14:20:49.451Z,100783.78
2023-02-23T14:23:30.415Z,100786.31
2023-02-23T14:26:15.867Z,100783.19
2023-02-23T14:28:46.929Z,100781.50
2023-02-23T14:31:23.480Z,100782.00
2023-02-23T14:34:00.209Z,100779.09
2023-02-23T14:36:39.687Z,100783.75
2023-02-23T14:39:10.906Z,100787.84
2023-02-23T14:41:43.109Z,100782.09
2023-02-23T14:44:28.244Z,100778.56
2023-02-23T14:46:59.662Z,100786.88
2023-02-23T14:49:29.366Z,100783.84
2023-02-23T14:52:00.978Z,100774.84
2023-02-23T14:54:33.586Z,100781.25
2023-02-23T14:57:03.615Z,100779.97
2023-02-23T14:59:38.944Z,100781.03
2023-02-23T15:02:13.996Z,100781.03
2023-02-23T15:04:43.893Z,100784.56
2023-02-23T15:07:24.278Z,100775.88
2023-02-23T15:09:54.065Z,100775.66
2023-02-23T15:12:28.440Z,100784.25
2023-02-23T15:14:59.731Z,100782.44
2023-02-23T15:17:30.960Z,100786.28
2023-02-23T15:20:14.672Z,100785.34
2023-02-23T15:22:47.692Z,100782.34
2023-02-23T15:25:18.768Z,100778.25
2023-02-23T15:27:50.186Z,100781.47
2023-02-23T15:30:24.464Z,100771.94
2023-02-23T15:33:01.830Z,100777.28
2023-02-23T15:35:31.287Z,100773.09
2023-02-23T15:38:13.716Z,100782.34
2023-02-23T15:40:42.675Z,100778.41
2023-02-23T15:43:12.264Z,100782.13
2023-02-23T15:45:42.930Z,100779.28
2023-02-23T15:48:18.812Z,100787.69
2023-02-23T15:50:50.332Z,100776.97
2023-02-23T15:53:31.797Z,100783.88
2023-02-23T15:56:08.768Z,100778.69
2023-02-23T15:58:50.935Z,100769.19
2023-02-23T16:01:25.917Z,100774.88
2023-02-23T16:04:01.132Z,100773.91
2023-02-23T16:06:35.001Z,100775.56
2023-02-23T16:09:23.708Z,100772.56
2023-02-23T16:11:54.147Z,100773.84
2023-02-23T16:14:24.272Z,100775.47
2023-02-23T16:17:10.062Z,100773.78
2023-02-23T16:19:42.109Z,100770.59
2023-02-23T16:22:20.898Z,100766.84
2023-02-23T16:25:02.660Z,100770.34
2023-02-23T16:27:31.606Z,100774.03
2023-02-23T16:32:45.391Z,100761.91
2023-02-23T16:35:18.287Z,100762.31
2023-02-23T16:38:03.996Z,100761.59
2023-02-23T16:40:33.860Z,100775.34
2023-02-23T16:43:02.859Z,100766.75
2023-02-23T16:45:31.574Z,100773.63
2023-02-23T16:48:02.671Z,100771.00
2023-02-23T16:50:33.777Z,100776.34
2023-02-23T16:53:03.567Z,100776.00
2023-02-23T16:55:38.215Z,100775.66
2023-02-23T16:58:11.356Z,100771.16
2023-02-23T17:00:39.740Z,100776.88
2023-02-23T17:03:11.983Z,100781.94
2023-02-23T17:05:41.411Z,100779.00
2023-02-23T17:08:10.667Z,100784.63
2023-02-23T17:10:39.012Z,100790.16
2023-02-23T17:13:12.151Z,100792.44
2023-02-23T17:15:51.043Z,100794.25
2023-02-23T17:18:19.603Z,100800.13
2023-02-23T17:20:48.951Z,100806.34
2023-02-23T17:23:17.744Z,100808.28
2023-02-23T17:25:46.881Z,100796.81
2023-02-23T17:28:16.235Z,100794.25
2023-02-23T17:30:45.100Z,100799.47
2023-02-23T17:33:13.503Z,100795.28
2023-02-23T17:35:41.074Z,100799.34
2023-02-23T17:38:09.545Z,100797.63
2023-02-23T17:40:38.150Z,100801.31
2023-02-23T17:43:08.338Z,100802.22
2023-02-23T17:45:37.555Z,100805.38
2023-02-23T17:48:05.615Z,100811.53
2023-02-23T17:50:33.162Z,100809.84
2023-02-23T17:53:00.682Z,100819.28
2023-02-23T17:55:28.187Z,100820.91
2023-02-23T17:57:55.716Z,100819.34
2023-02-23T18:00:25.065Z,100820.78
2023-02-23T18:02:53.927Z,100824.03
2023-02-23T18:05:21.734Z,100825.72
2023-02-23T18:07:49.215Z,100821.06
2023-02-23T18:10:17.722Z,100831.31
2023-02-23T18:12:45.564Z,100829.75
2023-02-23T18:15:13.168Z,100816.81
2023-02-23T18:17:40.689Z,100821.94
2023-02-23T18:20:13.991Z,100820.09
2023-02-23T18:22:41.800Z,100818.16
2023-02-23T18:25:10.324Z,100808.09
2023-02-23T18:27:37.837Z,100817.13
2023-02-23T18:30:06.149Z,100814.44
2023-02-23T18:32:33.849Z,100805.19
2023-02-23T18:35:01.378Z,100806.47
2023-02-23T18:37:30.861Z,100809.50
2023-02-23T18:39:59.273Z,100813.13
2023-02-23T18:42:27.085Z,100813.81
2023-02-23T18:44:54.728Z,100805.19
2023-02-23T18:47:22.219Z,100812.03
2023-02-23T18:49:49.702Z,100805.28
2023-02-23T18:52:17.157Z,100803.59
2023-02-23T18:54:46.479Z,100801.34
2023-02-23T18:57:13.888Z,100800.47
2023-02-23T18:59:41.391Z,100820.22
2023-02-23T19:02:08.916Z,100806.00
2023-02-23T19:04:36.528Z,100812.28
2023-02-23T19:07:04.002Z,100809.22
2023-02-23T19:09:31.553Z,100817.06
2023-02-23T19:12:00.379Z,100807.38
2023-02-23T19:14:47.948Z,100805.59
2023-02-23T19:17:15.272Z,100801.72
2023-02-23T19:19:42.796Z,100810.03
2023-02-23T19:22:10.898Z,100806.09
2023-02-23T19:24:38.772Z,100796.72
2023-02-23T19:27:07.683Z,100803.81
2023-02-23T19:29:35.197Z,100807.69
2023-02-23T19:32:03.783Z,100802.19
2023-02-23T19:34:31.364Z,100805.13
2023-02-23T19:36:58.928Z,100799.81
2023-02-23T19:39:26.532Z,100797.38
2023-02-23T19:41:54.136Z,100792.53
2023-02-23T19:44:23.003Z,100798.38
2023-02-23T19:46:50.601Z,100793.91
2023-02-23T19:49:18.092Z,100791.56
2023-02-23T19:51:47.573Z,100795.16
2023-02-23T19:54:15.167Z,100800.94
2023-02-23T19:56:43.300Z,100800.88
2023-02-23T19:59:12.037Z,100802.72
2023-02-23T20:01:43.422Z,100807.38
2023-02-23T20:04:10.912Z,100810.75
2023-02-23T20:06:44.721Z,100809.72
2023-02-23T20:09:12.375Z,100812.16
2023-02-23T20:11:40.498Z,100821.28
2023-02-23T20:14:08.204Z,100809.16
2023-02-23T20:16:36.383Z,100809.78
2023-02-23T20:19:06.606Z,100807.56
2023-02-23T20:21:34.949Z,100813.78
2023-02-23T20:24:03.730Z,100822.75
2023-02-23T20:26:35.429Z,100811.34
2023-02-23T20:29:05.051Z,100816.50
2023-02-23T20:31:35.493Z,100828.50
2023-02-23T20:34:07.618Z,100829.66
2023-02-23T20:36:35.705Z,100831.88
2023-02-23T20:39:03.728Z,100826.31
2023-02-23T20:41:31.548Z,100838.31
2023-02-23T20:44:01.049Z,100833.44
2023-02-23T20:46:30.387Z,100833.69
2023-02-23T20:48:59.167Z,100837.72
2023-02-23T20:51:28.465Z,100836.00
2023-02-23T20:53:56.091Z,100834.19
2023-02-23T20:56:23.593Z,100826.31
2023-02-23T20:58:54.176Z,100833.97
2023-02-23T21:01:23.677Z,100833.38
2023-02-23T21:03:52.207Z,100839.53
2023-02-23T21:06:20.031Z,100828.59
2023-02-23T21:08:49.730Z,100823.59
2023-02-23T21:11:17.778Z,100818.09
2023-02-23T21:13:45.826Z,100813.56
2023-02-23T21:16:15.023Z,100821.28
2023-02-23T21:18:46.118Z,100831.63
2023-02-23T21:21:15.800Z,100823.78
2023-02-23T21:23:44.960Z,100820.06
2023-02-23T21:26:15.649Z,100823.16
2023-02-23T21:28:43.901Z,100817.22
2023-02-23T21:31:12.469Z,100816.72
2023-02-23T21:33:40.930Z,100815.03
2023-02-23T21:36:10.758Z,100809.69
2023-02-23T21:38:38.651Z,100804.56
2023-02-23T21:41:06.414Z,100804.16
2023-02-23T21:43:36.508Z,100795.50
2023-02-23T21:46:08.137Z,100789.53
2023-02-23T21:48:35.899Z,100803.91
2023-02-23T21:51:04.524Z,100804.63
2023-02-23T21:53:32.431Z,100801.09
2023-02-23T21:55:59.834Z,100806.31
2023-02-23T21:58:27.837Z,100801.72
2023-02-23T22:00:56.758Z,100793.91
2023-02-23T22:03:25.945Z,100791.66
2023-02-23T22:05:53.371Z,100789.84
2023-02-23T22:08:21.032Z,100789.63
2023-02-23T22:10:48.822Z,100789.03
2023-02-23T22:13:19.218Z,100785.31
2023-02-23T22:18:34.941Z,100775.34
2023-02-23T22:21:08.680Z,100786.19
2023-02-23T22:23:36.611Z,100787.44
2023-02-23T22:26:04.397Z,100784.44
2023-02-23T22:28:32.386Z,100779.31
2023-02-23T22:31:04.852Z,100779.09
2023-02-23T22:33:34.465Z,100777.22
2023-02-23T22:36:03.229Z,100769.22
2023-02-23T22:38:32.755Z,100779.31
2023-02-23T22:41:00.793Z,100767.41
2023-02-23T22:43:30.184Z,100770.59
2023-02-23T22:45:58.228Z,100757.59
2023-02-23T22:48:28.390Z,100757.44
2023-02-23T22:50:59.690Z,100748.91
2023-02-23T22:53:27.701Z,100753.06
2023-02-23T22:55:56.422Z,100750.06
2023-02-23T22:58:26.394Z,100741.63
2023-02-23T23:01:05.096Z,100743.03
2023-02-23T23:03:35.866Z,100738.94
2023-02-23T23:06:08.056Z,100740.78
2023-02-23T23:08:38.711Z,100737.41
2023-02-23T23:11:10.275Z,100732.28
2023-02-23T23:13:43.298Z,100737.19
2023-02-23T23:16:16.815Z,100726.47
2023-02-23T23:18:54.280Z,100721.72
2023-02-23T23:21:26.333Z,100725.69
2023-02-23T23:23:56.050Z,100721.91
2023-02-23T23:26:25.665Z,100721.59
2023-02-23T23:28:55.165Z,100716.66
2023-02-23T23:31:28.373Z,100709.16
2023-02-23T23:34:00.122Z,100718.41
2023-02-23T23:36:31.993Z,100710.53
2023-02-23T23:39:00.070Z,100700.63
2023-02-23T23:41:29.362Z,100698.47
2023-02-23T23:43:59.165Z,100691.19
2023-02-23T23:46:32.468Z,100685.41
2023-02-23T23:49:02.605Z,100689.41
2023-02-23T23:51:37.236Z,100688.47
2023-02-23T23:54:06.226Z,100677.78
2023-02-23T23:56:37.546Z,100675.59
2023-02-23T23:59:07.311Z,100680.81
